Pagrindinis puslapis
METAR-TAF:

METAR-TAF

Oro uostai :

Vanua Lava, Vanuatu

platuma: 13-51-06S, ilguma: 167-32-13E, Aukštis: 2 m

Dabartinis oras

Ataskaita buvo paskelbta 4 valandos ir 13 minutes, ne 06:00 UTC
Vėjas 10 kt iš Rytų/Pietryčių
Temperatūra 27°C
Drėgmė 70%
Slėgis 1011 hPa
Matomumas 10 km arba daugiau
Išsisklaidę debesys ne aukštis 2000 ft

METAR: NVSC 220600Z 12010KT 9999 SCT020 27/21 Q1011

Laikas: 21:13 (10:13 UTC)

Prognozė

Ataskaita buvo paskelbta 5 valandos ir 13 minutes, ne 05:00 UTC
Prognozė galioja nuo 22 metu 06 UTC su 23 metu 06 UTC
Vėjas 12 kt iš Rytų/Pietryčių
Matomumas: 9000 m
Išsisklaidę debesys ne aukštis 2000 ft
Su prošvaistėmis ne aukštis 5000 ft
Su prošvaistėmis ne aukštis 1800 ft
lietus,

TAF: NVSC 220500Z 2206/2306 12012KT 9999 SCT020 BKN050 INTER 2206/2212 9000 SHRA BKN018

Orai ataskaitas ir orų prognozės (METAR, TAF).

turimą stotys yra geltonos ir raudonos taškus žemėlapyje.

Perkelti pele per norėdami pamatyti stoties vardą.

Tada spustelėkite, norėdami matyti oro stebėjimo ir prognozės.

Norėdami pakeisti žemėlapį: spustelėkite ant žalios mygtukų su juodo kryžiaus žemyn,; žalią mygtuką su brūkšneliu, jei norite nutolinti; arba žalių rodyklių gretimoms žemėlapius.


METAR-TAF: